createdAt,value
2022-10-14T00:00:08.099Z,46.1590
2022-10-14T00:00:19.159Z,46.1650
2022-10-14T00:00:30.217Z,46.1710
2022-10-14T00:00:41.297Z,46.1590
2022-10-14T00:00:52.381Z,46.1650
2022-10-14T00:01:03.448Z,46.1710
2022-10-14T00:01:14.517Z,46.1710
2022-10-14T00:01:25.686Z,46.1890
2022-10-14T00:01:36.812Z,46.1830
2022-10-14T00:01:47.941Z,46.1950
2022-10-14T00:01:58.993Z,46.1990
2022-10-14T00:02:10.150Z,46.2110
2022-10-14T00:02:21.286Z,46.2010
2022-10-14T00:02:32.368Z,46.2090
2022-10-14T00:02:43.444Z,46.2010
2022-10-14T00:02:54.507Z,46.1950
2022-10-14T00:03:05.568Z,46.1890
2022-10-14T00:03:16.638Z,46.1770
2022-10-14T00:03:27.708Z,46.1650
2022-10-14T00:03:38.797Z,46.1650
2022-10-14T00:03:49.864Z,46.1710
2022-10-14T00:04:00.919Z,46.1530
2022-10-14T00:04:11.987Z,46.1410
2022-10-14T00:04:23.043Z,46.1410
2022-10-14T00:04:34.144Z,46.1590
2022-10-14T00:04:45.197Z,46.1650
2022-10-14T00:04:56.264Z,46.1530
2022-10-14T00:05:07.328Z,46.1530
2022-10-14T00:05:18.397Z,46.1560
2022-10-14T00:05:29.478Z,46.1370
2022-10-14T00:05:40.527Z,46.1250
2022-10-14T00:05:51.599Z,46.1320
2022-10-14T00:06:02.668Z,46.1190
2022-10-14T00:06:13.739Z,46.1250
2022-10-14T00:06:24.825Z,46.1440
2022-10-14T00:06:35.888Z,46.1490
2022-10-14T00:06:46.938Z,46.1530
2022-10-14T00:06:58.018Z,46.1590
2022-10-14T00:07:09.087Z,46.1530
2022-10-14T00:07:20.374Z,46.1590
2022-10-14T00:07:31.618Z,46.1770
2022-10-14T00:07:42.698Z,46.1830
2022-10-14T00:07:53.767Z,46.1870
2022-10-14T00:08:04.849Z,46.1870
2022-10-14T00:08:15.911Z,46.1930
2022-10-14T00:08:26.971Z,46.1990
2022-10-14T00:08:38.008Z,46.2050
2022-10-14T00:08:49.115Z,46.1950
2022-10-14T00:09:00.186Z,46.2270
2022-10-14T00:09:11.249Z,46.2270
2022-10-14T00:09:22.287Z,46.2390
2022-10-14T00:09:33.355Z,46.2570
2022-10-14T00:09:44.421Z,46.2450
2022-10-14T00:09:55.487Z,46.2330
2022-10-14T00:10:06.551Z,46.2410
2022-10-14T00:10:17.617Z,46.2350
2022-10-14T00:10:28.694Z,46.2410
2022-10-14T00:10:39.741Z,46.2410
2022-10-14T00:10:50.875Z,46.2350
2022-10-14T00:11:01.974Z,46.2350
2022-10-14T00:11:13.007Z,46.2290
2022-10-14T00:11:24.088Z,46.2470
2022-10-14T00:11:35.162Z,46.2750
2022-10-14T00:11:46.207Z,46.2330
2022-10-14T00:11:57.280Z,46.2450
2022-10-14T00:12:08.337Z,46.2390
2022-10-14T00:12:19.414Z,46.2570
2022-10-14T00:12:30.458Z,46.2630
2022-10-14T00:12:41.518Z,46.2570
2022-10-14T00:12:52.578Z,46.2450
2022-10-14T00:13:03.658Z,46.2450
2022-10-14T00:13:14.728Z,46.2630
2022-10-14T00:13:25.787Z,46.2630
2022-10-14T00:13:36.848Z,46.2690
2022-10-14T00:13:47.898Z,46.2670
2022-10-14T00:13:58.987Z,46.2670
2022-10-14T00:14:10.047Z,46.2730
2022-10-14T00:14:21.117Z,46.2790
2022-10-14T00:14:32.194Z,46.2730
2022-10-14T00:14:43.257Z,46.2790
2022-10-14T00:14:54.318Z,46.3070
2022-10-14T00:15:05.387Z,46.2810
2022-10-14T00:15:16.468Z,46.2950
2022-10-14T00:15:27.538Z,46.2950
2022-10-14T00:15:38.608Z,46.2910
2022-10-14T00:15:49.657Z,46.2970
2022-10-14T00:16:00.705Z,46.3190
2022-10-14T00:16:11.777Z,46.3190
2022-10-14T00:16:22.837Z,46.3190
2022-10-14T00:16:33.907Z,46.3540
2022-10-14T00:16:44.986Z,46.3710
2022-10-14T00:16:56.046Z,46.3330
2022-10-14T00:17:07.124Z,46.3330
2022-10-14T00:17:18.361Z,46.3330
2022-10-14T00:17:29.698Z,46.3640
2022-10-14T00:17:40.768Z,46.3430
2022-10-14T00:17:51.848Z,46.3490
2022-10-14T00:18:02.928Z,46.3530
2022-10-14T00:18:13.994Z,46.3580
2022-10-14T00:18:25.058Z,46.3640
2022-10-14T00:18:36.119Z,46.4000
2022-10-14T00:18:47.188Z,46.3880
2022-10-14T00:18:58.257Z,46.3800
2022-10-14T00:19:09.374Z,46.3540
2022-10-14T00:19:20.428Z,46.3590
2022-10-14T00:19:31.488Z,46.3640
2022-10-14T00:19:42.547Z,46.3530
2022-10-14T00:19:53.609Z,46.3310
2022-10-14T00:20:04.673Z,46.3190
2022-10-14T00:20:15.728Z,46.3190
2022-10-14T00:20:26.817Z,46.3190
2022-10-14T00:20:37.878Z,46.3310
2022-10-14T00:20:48.942Z,46.3370
2022-10-14T00:20:59.998Z,46.3410
2022-10-14T00:21:11.071Z,46.3460
2022-10-14T00:21:22.119Z,46.3430
2022-10-14T00:21:33.168Z,46.3860
2022-10-14T00:21:44.227Z,46.3760
2022-10-14T00:21:55.298Z,46.3460
2022-10-14T00:22:06.369Z,46.3330
2022-10-14T00:22:17.437Z,46.3270
2022-10-14T00:22:28.512Z,46.3210
2022-10-14T00:22:39.568Z,46.3330
2022-10-14T00:22:50.610Z,46.3410
2022-10-14T00:23:01.677Z,46.3590
2022-10-14T00:23:12.738Z,46.3760
2022-10-14T00:23:23.808Z,46.3760
2022-10-14T00:23:34.871Z,46.3710
2022-10-14T00:23:45.908Z,46.3730
2022-10-14T00:23:56.968Z,46.3370
2022-10-14T00:24:08.009Z,46.3190
2022-10-14T00:24:19.109Z,46.3070
2022-10-14T00:24:30.174Z,46.3130
2022-10-14T00:24:41.228Z,46.3550
2022-10-14T00:24:52.300Z,46.3490
2022-10-14T00:25:03.377Z,46.3370
2022-10-14T00:25:14.437Z,46.3310
2022-10-14T00:25:25.497Z,46.3370
2022-10-14T00:25:36.578Z,46.3250
2022-10-14T00:25:47.649Z,46.3250
2022-10-14T00:25:58.735Z,46.3190
2022-10-14T00:26:09.782Z,46.3250
2022-10-14T00:26:20.848Z,46.3430
2022-10-14T00:26:31.907Z,46.3610
2022-10-14T00:26:42.977Z,46.3800
2022-10-14T00:26:54.042Z,46.3610
2022-10-14T00:27:05.106Z,46.3650
2022-10-14T00:27:16.167Z,46.3210
2022-10-14T00:27:27.226Z,46.3150
2022-10-14T00:27:38.288Z,46.3130
2022-10-14T00:27:49.339Z,46.3190
2022-10-14T00:28:00.407Z,46.3370
2022-10-14T00:28:11.469Z,46.3310
2022-10-14T00:28:22.602Z,46.3460
2022-10-14T00:28:33.765Z,46.3530
2022-10-14T00:28:44.911Z,46.3640
2022-10-14T00:28:56.062Z,46.3760
2022-10-14T00:29:07.097Z,46.3830
2022-10-14T00:29:18.174Z,46.3710
2022-10-14T00:29:29.351Z,46.3710
2022-10-14T00:29:40.416Z,46.3800
2022-10-14T00:29:51.497Z,46.3830
2022-10-14T00:30:02.565Z,46.3760
2022-10-14T00:30:13.607Z,46.3830
2022-10-14T00:30:24.667Z,46.3760
2022-10-14T00:30:35.727Z,46.3710
2022-10-14T00:30:46.778Z,46.3710
2022-10-14T00:30:57.838Z,46.3880
2022-10-14T00:31:08.924Z,46.4050
2022-10-14T00:31:19.977Z,46.3950
2022-10-14T00:31:31.047Z,46.3880
2022-10-14T00:31:42.107Z,46.3880
2022-10-14T00:31:53.170Z,46.3920
2022-10-14T00:32:04.207Z,46.3920
2022-10-14T00:32:15.268Z,46.3980
2022-10-14T00:32:26.346Z,46.4060
2022-10-14T00:32:37.417Z,46.4180
2022-10-14T00:32:48.487Z,46.4260
2022-10-14T00:32:59.567Z,46.4490
2022-10-14T00:33:10.629Z,46.4430
2022-10-14T00:33:21.698Z,46.4550
2022-10-14T00:33:32.748Z,46.4550
2022-10-14T00:33:43.808Z,46.4550
2022-10-14T00:33:54.867Z,46.4510
2022-10-14T00:34:05.944Z,46.4510
2022-10-14T00:34:17.027Z,46.4670
2022-10-14T00:34:30.570Z,46.4670
2022-10-14T00:34:42.037Z,46.5710
2022-10-14T00:34:53.097Z,46.4890
2022-10-14T00:35:04.140Z,46.4270
2022-10-14T00:35:15.209Z,46.4330
2022-10-14T00:35:26.303Z,46.4270
2022-10-14T00:35:37.337Z,46.4390
2022-10-14T00:35:48.404Z,46.4230
2022-10-14T00:35:59.460Z,46.4050
2022-10-14T00:36:10.498Z,46.4170
2022-10-14T00:36:21.557Z,46.4170
2022-10-14T00:36:32.625Z,46.4030
2022-10-14T00:36:43.691Z,46.4210
2022-10-14T00:36:54.747Z,46.4510
2022-10-14T00:37:05.833Z,46.4570
2022-10-14T00:37:16.847Z,46.4450
2022-10-14T00:37:27.918Z,46.4510
2022-10-14T00:37:38.989Z,46.4050
2022-10-14T00:37:50.049Z,46.4110
2022-10-14T00:38:01.109Z,46.3930
2022-10-14T00:38:12.166Z,46.3760
2022-10-14T00:38:23.227Z,46.3460
2022-10-14T00:38:34.296Z,46.3490
2022-10-14T00:38:45.392Z,46.3430
2022-10-14T00:38:56.434Z,46.3460
2022-10-14T00:39:07.497Z,46.3410
2022-10-14T00:39:18.568Z,46.3640
2022-10-14T00:39:29.647Z,46.3710
2022-10-14T00:39:40.688Z,46.3530
2022-10-14T00:39:56.787Z,46.3410
2022-10-14T00:40:08.709Z,46.5950
2022-10-14T00:40:19.768Z,46.5190
2022-10-14T00:40:30.837Z,46.4210
2022-10-14T00:40:41.898Z,46.3830
2022-10-14T00:40:52.969Z,46.3810
2022-10-14T00:41:04.027Z,46.3570
2022-10-14T00:41:15.094Z,46.3630
2022-10-14T00:41:26.128Z,46.3570
2022-10-14T00:41:37.189Z,46.3810
2022-10-14T00:41:48.227Z,46.3750
2022-10-14T00:41:59.278Z,46.3630
2022-10-14T00:42:10.348Z,46.3690
2022-10-14T00:42:21.407Z,46.3810
2022-10-14T00:42:32.448Z,46.3750
2022-10-14T00:42:43.518Z,46.3810
2022-10-14T00:42:54.587Z,46.3750
2022-10-14T00:43:05.648Z,46.3530
2022-10-14T00:43:16.707Z,46.3470
2022-10-14T00:43:27.778Z,46.3650
2022-10-14T00:43:38.840Z,46.3770
2022-10-14T00:43:50.072Z,46.3970
2022-10-14T00:44:01.158Z,46.4270
2022-10-14T00:44:12.209Z,46.4150
2022-10-14T00:44:23.295Z,46.4210
2022-10-14T00:44:34.357Z,46.4270
2022-10-14T00:44:45.428Z,46.4390
2022-10-14T00:44:56.518Z,46.4570
2022-10-14T00:45:07.577Z,46.4690
2022-10-14T00:45:18.648Z,46.4630
2022-10-14T00:45:29.726Z,46.4630
2022-10-14T00:45:40.805Z,46.4570
2022-10-14T00:45:51.867Z,46.4090
2022-10-14T00:46:02.935Z,46.3890
2022-10-14T00:46:13.978Z,46.3890
2022-10-14T00:46:25.018Z,46.3830
2022-10-14T00:46:36.067Z,46.3970
2022-10-14T00:46:47.128Z,46.3970
2022-10-14T00:46:58.189Z,46.3970
2022-10-14T00:47:09.247Z,46.3890
2022-10-14T00:47:20.655Z,46.4090
2022-10-14T00:47:32.154Z,46.4510
2022-10-14T00:47:43.207Z,46.4390
2022-10-14T00:47:54.268Z,46.4270
2022-10-14T00:48:05.346Z,46.4090
2022-10-14T00:48:16.377Z,46.4090
2022-10-14T00:48:27.448Z,46.4210
2022-10-14T00:48:38.517Z,46.4210
2022-10-14T00:48:49.567Z,46.4150
2022-10-14T00:49:00.658Z,46.4090
2022-10-14T00:49:11.731Z,46.3890
2022-10-14T00:49:22.798Z,46.4270
2022-10-14T00:49:33.858Z,46.4510
2022-10-14T00:49:44.921Z,46.4330
2022-10-14T00:49:55.967Z,46.4210
2022-10-14T00:50:07.070Z,46.4050
2022-10-14T00:50:18.107Z,46.3930
2022-10-14T00:50:29.168Z,46.3530
2022-10-14T00:50:40.227Z,46.3530
2022-10-14T00:50:51.298Z,46.3410
2022-10-14T00:51:02.357Z,46.3270
2022-10-14T00:51:13.417Z,46.3460
2022-10-14T00:51:24.498Z,46.3570
2022-10-14T00:51:35.557Z,46.3630
2022-10-14T00:51:46.614Z,46.3650
2022-10-14T00:51:57.667Z,46.3810
2022-10-14T00:52:08.738Z,46.3810
2022-10-14T00:52:19.792Z,46.3750
2022-10-14T00:52:30.852Z,46.3630
2022-10-14T00:52:41.918Z,46.3570
2022-10-14T00:52:52.978Z,46.3710
2022-10-14T00:53:04.048Z,46.3970
2022-10-14T00:53:15.107Z,46.3970
2022-10-14T00:53:26.176Z,46.3970
2022-10-14T00:53:37.237Z,46.3970
2022-10-14T00:53:48.322Z,46.4090
2022-10-14T00:53:59.367Z,46.4030
2022-10-14T00:54:10.417Z,46.4270
2022-10-14T00:54:21.488Z,46.4030
2022-10-14T00:54:32.558Z,46.4090
2022-10-14T00:54:43.607Z,46.3970
2022-10-14T00:54:54.648Z,46.3890
2022-10-14T00:55:05.709Z,46.3770
2022-10-14T00:55:16.808Z,46.3890
2022-10-14T00:55:27.876Z,46.4090
2022-10-14T00:55:38.917Z,46.3890
2022-10-14T00:55:49.994Z,46.3590
2022-10-14T00:56:01.048Z,46.3830
2022-10-14T00:56:12.128Z,46.3830
2022-10-14T00:56:23.198Z,46.3710
2022-10-14T00:56:34.280Z,46.3830
2022-10-14T00:56:45.327Z,46.3710
2022-10-14T00:56:56.374Z,46.3650
2022-10-14T00:57:07.417Z,46.3650
2022-10-14T00:57:18.706Z,46.3710
2022-10-14T00:57:30.007Z,46.4090
2022-10-14T00:57:41.067Z,46.3890
2022-10-14T00:57:52.130Z,46.3970
2022-10-14T00:58:03.197Z,46.4030
2022-10-14T00:58:14.258Z,46.3970
2022-10-14T00:58:25.299Z,46.4030
2022-10-14T00:58:36.367Z,46.4090
2022-10-14T00:58:47.418Z,46.4030
2022-10-14T00:58:58.491Z,46.3970
2022-10-14T00:59:09.557Z,46.4090
2022-10-14T00:59:20.607Z,46.4090
2022-10-14T00:59:31.685Z,46.3650
2022-10-14T00:59:42.737Z,46.3530
2022-10-14T00:59:53.809Z,46.3350
2022-10-14T01:00:04.852Z,46.3320
2022-10-14T01:00:15.920Z,46.3200
2022-10-14T01:00:27.092Z,46.3070
2022-10-14T01:00:38.238Z,46.3130
2022-10-14T01:00:49.389Z,46.3290
2022-10-14T01:01:00.535Z,46.3530
2022-10-14T01:01:11.684Z,46.3590
2022-10-14T01:01:22.715Z,46.3590
2022-10-14T01:01:33.770Z,46.3650
2022-10-14T01:01:44.840Z,46.3970
2022-10-14T01:01:55.887Z,46.4030
2022-10-14T01:02:06.957Z,46.3830
2022-10-14T01:02:18.025Z,46.3890
2022-10-14T01:02:29.096Z,46.3770
2022-10-14T01:02:40.158Z,46.3710
2022-10-14T01:02:51.238Z,46.3830
2022-10-14T01:03:02.308Z,46.3770
2022-10-14T01:03:13.377Z,46.3750
2022-10-14T01:03:24.438Z,46.3370
2022-10-14T01:03:35.509Z,46.3430
2022-10-14T01:03:46.559Z,46.3370
2022-10-14T01:03:57.597Z,46.3370
2022-10-14T01:04:08.657Z,46.3250
2022-10-14T01:04:19.743Z,46.3370
2022-10-14T01:04:30.785Z,46.3430
2022-10-14T01:04:41.856Z,46.3320
2022-10-14T01:04:53.111Z,46.3570
2022-10-14T01:05:04.157Z,46.3370
2022-10-14T01:05:15.218Z,46.3320
2022-10-14T01:05:26.288Z,46.3210
2022-10-14T01:05:37.377Z,46.3130
2022-10-14T01:05:48.437Z,46.3130
2022-10-14T01:05:59.498Z,46.3320
2022-10-14T01:06:10.557Z,46.3150
2022-10-14T01:06:21.618Z,46.3030
2022-10-14T01:06:32.688Z,46.3030
2022-10-14T01:06:43.748Z,46.3200
2022-10-14T01:06:54.817Z,46.3370
2022-10-14T01:07:05.897Z,46.3510
2022-10-14T01:07:16.982Z,46.3530
2022-10-14T01:07:28.018Z,46.3770
2022-10-14T01:07:39.089Z,46.3710
2022-10-14T01:07:50.127Z,46.3650
2022-10-14T01:08:01.194Z,46.3650
2022-10-14T01:08:12.257Z,46.3710
2022-10-14T01:08:23.328Z,46.3770
2022-10-14T01:08:34.367Z,46.3770
2022-10-14T01:08:45.435Z,46.3890
2022-10-14T01:08:56.544Z,46.3890
2022-10-14T01:09:07.568Z,46.3970
2022-10-14T01:09:18.628Z,46.3890
2022-10-14T01:09:29.697Z,46.3890
2022-10-14T01:09:40.768Z,46.4090
2022-10-14T01:09:51.817Z,46.4030
2022-10-14T01:10:02.895Z,46.4030
2022-10-14T01:10:13.929Z,46.4030
2022-10-14T01:10:24.989Z,46.4210
2022-10-14T01:10:36.052Z,46.4030
2022-10-14T01:10:47.140Z,46.3770
2022-10-14T01:10:58.197Z,46.3770
2022-10-14T01:11:09.276Z,46.3710
2022-10-14T01:11:20.339Z,46.3770
2022-10-14T01:11:31.405Z,46.3590
2022-10-14T01:11:42.472Z,46.3710
2022-10-14T01:12:04.385Z,46.3530
2022-10-14T01:12:28.032Z,46.5990
2022-10-14T01:12:29.522Z,46.7210
2022-10-14T01:12:41.057Z,46.6750
2022-10-14T01:12:52.124Z,46.5350
2022-10-14T01:13:03.184Z,46.4670
2022-10-14T01:13:14.240Z,46.4450
2022-10-14T01:13:25.309Z,46.4330
2022-10-14T01:13:36.374Z,46.4210
2022-10-14T01:13:47.418Z,46.4030
2022-10-14T01:13:58.478Z,46.4150
2022-10-14T01:14:09.559Z,46.4030
2022-10-14T01:14:20.627Z,46.3970
2022-10-14T01:14:31.697Z,46.3650
2022-10-14T01:14:42.769Z,46.3770
2022-10-14T01:14:53.818Z,46.3890
2022-10-14T01:15:04.978Z,46.3650
2022-10-14T01:15:16.094Z,46.3710
2022-10-14T01:15:27.127Z,46.3470
2022-10-14T01:15:38.192Z,46.3350
2022-10-14T01:15:49.300Z,46.3650
2022-10-14T01:16:00.375Z,46.3530
2022-10-14T01:16:11.438Z,46.3770
2022-10-14T01:16:22.501Z,46.3650
2022-10-14T01:16:33.580Z,46.3650
2022-10-14T01:16:44.631Z,46.3830
2022-10-14T01:16:55.688Z,46.3770
2022-10-14T01:17:06.758Z,46.4090
2022-10-14T01:17:17.811Z,46.3770
2022-10-14T01:17:28.857Z,46.3530
2022-10-14T01:17:39.932Z,46.3530
2022-10-14T01:17:51.009Z,46.3530
2022-10-14T01:18:02.078Z,46.3470
2022-10-14T01:18:13.138Z,46.3410
2022-10-14T01:18:24.189Z,46.3470
2022-10-14T01:18:35.247Z,46.3410
2022-10-14T01:18:46.322Z,46.3410
2022-10-14T01:18:57.397Z,46.3410
2022-10-14T01:19:08.448Z,46.3470
2022-10-14T01:19:19.508Z,46.3590
2022-10-14T01:19:30.577Z,46.3530
2022-10-14T01:19:41.649Z,46.3650
2022-10-14T01:19:52.709Z,46.3410
2022-10-14T01:20:03.777Z,46.3530
2022-10-14T01:20:14.847Z,46.3650
2022-10-14T01:20:25.907Z,46.3410
2022-10-14T01:20:36.987Z,46.3470
2022-10-14T01:20:48.057Z,46.3470
2022-10-14T01:20:59.161Z,46.3410
2022-10-14T01:21:10.217Z,46.3650
2022-10-14T01:21:21.286Z,46.3770
2022-10-14T01:21:32.348Z,46.3590
2022-10-14T01:21:43.408Z,46.3590
2022-10-14T01:21:54.448Z,46.3710
2022-10-14T01:22:05.497Z,46.3650
2022-10-14T01:22:20.014Z,46.3650
2022-10-14T01:22:33.517Z,46.6010
2022-10-14T01:22:44.579Z,46.5490
2022-10-14T01:22:55.639Z,46.4890
2022-10-14T01:23:06.710Z,46.4690
2022-10-14T01:23:17.770Z,46.4570
2022-10-14T01:23:28.841Z,46.4570
2022-10-14T01:23:39.888Z,46.4570
2022-10-14T01:23:50.958Z,46.4570
2022-10-14T01:24:02.042Z,46.4630
2022-10-14T01:24:13.065Z,46.4510
2022-10-14T01:24:24.128Z,46.4450
2022-10-14T01:24:35.193Z,46.4550
2022-10-14T01:24:46.257Z,46.4550
2022-10-14T01:24:57.327Z,46.4290
2022-10-14T01:25:08.409Z,46.4430
2022-10-14T01:25:19.458Z,46.4490
2022-10-14T01:25:30.528Z,46.4490
2022-10-14T01:25:41.595Z,46.4490
2022-10-14T01:25:53.066Z,46.4670
2022-10-14T01:26:04.157Z,46.4670
2022-10-14T01:26:15.219Z,46.4550
2022-10-14T01:26:26.287Z,46.4490
2022-10-14T01:26:37.347Z,46.4350
2022-10-14T01:26:48.407Z,46.4490
2022-10-14T01:26:59.476Z,46.4610
2022-10-14T01:27:10.545Z,46.4730
2022-10-14T01:27:21.626Z,46.4610
2022-10-14T01:27:32.696Z,46.4350
2022-10-14T01:27:43.738Z,46.4170
2022-10-14T01:27:54.803Z,46.4110
2022-10-14T01:28:05.866Z,46.4350
2022-10-14T01:28:16.966Z,46.4170
2022-10-14T01:28:28.122Z,46.4110
2022-10-14T01:28:39.245Z,46.4110
2022-10-14T01:28:50.340Z,46.4110
2022-10-14T01:29:01.513Z,46.3990
2022-10-14T01:29:12.616Z,46.4230
2022-10-14T01:29:23.668Z,46.4110
2022-10-14T01:29:34.737Z,46.4110
2022-10-14T01:29:45.778Z,46.4030
2022-10-14T01:29:56.849Z,46.3830
2022-10-14T01:30:07.907Z,46.3530
2022-10-14T01:30:18.973Z,46.3650
2022-10-14T01:30:30.037Z,46.3530
2022-10-14T01:30:41.097Z,46.3350
2022-10-14T01:30:52.166Z,46.3170
2022-10-14T01:31:03.227Z,46.3110
2022-10-14T01:31:14.418Z,46.2860
2022-10-14T01:31:25.488Z,46.3030
2022-10-14T01:31:36.559Z,46.2730
2022-10-14T01:31:47.658Z,46.2800
2022-10-14T01:31:58.736Z,46.2860
2022-10-14T01:32:09.812Z,46.2860
2022-10-14T01:32:21.069Z,46.2910
2022-10-14T01:32:32.424Z,46.3110
2022-10-14T01:32:43.514Z,46.2800
2022-10-14T01:32:54.577Z,46.2680
2022-10-14T01:33:05.648Z,46.2500
2022-10-14T01:33:16.707Z,46.2320
2022-10-14T01:33:27.780Z,46.2440
2022-10-14T01:33:38.844Z,46.2440
2022-10-14T01:33:49.914Z,46.2500
2022-10-14T01:34:00.968Z,46.2560
2022-10-14T01:34:12.044Z,46.2560
2022-10-14T01:34:23.097Z,46.2910
2022-10-14T01:34:34.149Z,46.2730
2022-10-14T01:34:45.219Z,46.2680
2022-10-14T01:34:56.278Z,46.3230
2022-10-14T01:35:07.348Z,46.2910
2022-10-14T01:35:18.417Z,46.2680
2022-10-14T01:35:29.457Z,46.2730
2022-10-14T01:35:40.544Z,46.2680
2022-10-14T01:35:51.607Z,46.2800
2022-10-14T01:36:02.671Z,46.2800
2022-10-14T01:36:13.738Z,46.3030
2022-10-14T01:36:24.837Z,46.3230
2022-10-14T01:36:35.915Z,46.3230
2022-10-14T01:36:46.948Z,46.3230
2022-10-14T01:36:58.018Z,46.3030
2022-10-14T01:37:09.089Z,46.3030
2022-10-14T01:37:20.152Z,46.2970
2022-10-14T01:37:31.226Z,46.3110
2022-10-14T01:37:42.289Z,46.2850
2022-10-14T01:37:53.330Z,46.2850
2022-10-14T01:38:04.388Z,46.2770
2022-10-14T01:38:15.448Z,46.2950
2022-10-14T01:38:26.515Z,46.3010
2022-10-14T01:38:37.567Z,46.3130
2022-10-14T01:38:48.638Z,46.3130
2022-10-14T01:38:59.688Z,46.3070
2022-10-14T01:39:10.783Z,46.3130
2022-10-14T01:39:21.827Z,46.3250
2022-10-14T01:39:32.894Z,46.3190
2022-10-14T01:39:43.953Z,46.3250
2022-10-14T01:39:55.018Z,46.3250
2022-10-14T01:40:06.086Z,46.3370
2022-10-14T01:40:17.159Z,46.3310
2022-10-14T01:40:28.207Z,46.3310
2022-10-14T01:40:39.267Z,46.3370
2022-10-14T01:40:50.337Z,46.3490
2022-10-14T01:41:01.411Z,46.3490
2022-10-14T01:41:12.478Z,46.3490
2022-10-14T01:41:23.537Z,46.3630
2022-10-14T01:41:34.627Z,46.3570
2022-10-14T01:41:45.694Z,46.3570
2022-10-14T01:41:56.760Z,46.3570
2022-10-14T01:42:07.817Z,46.3290
2022-10-14T01:42:19.182Z,46.3110
2022-10-14T01:42:30.505Z,46.3370
2022-10-14T01:42:41.557Z,46.3190
2022-10-14T01:42:52.619Z,46.3130
2022-10-14T01:43:03.687Z,46.3310
2022-10-14T01:43:14.754Z,46.3310
2022-10-14T01:43:25.808Z,46.3370
2022-10-14T01:43:36.869Z,46.3370
2022-10-14T01:43:47.940Z,46.3490
2022-10-14T01:43:59.007Z,46.3370
2022-10-14T01:44:10.047Z,46.3410
2022-10-14T01:44:21.104Z,46.3290
2022-10-14T01:44:32.168Z,46.3110
2022-10-14T01:44:43.247Z,46.2850
2022-10-14T01:44:54.317Z,46.3110
2022-10-14T01:45:05.379Z,46.3030
2022-10-14T01:45:16.465Z,46.3030
2022-10-14T01:45:27.527Z,46.2800
2022-10-14T01:45:38.587Z,46.2550
2022-10-14T01:45:49.652Z,46.2550
2022-10-14T01:46:00.698Z,46.2850
2022-10-14T01:46:11.766Z,46.2730
2022-10-14T01:46:22.839Z,46.2850
2022-10-14T01:46:33.898Z,46.2680
2022-10-14T01:46:44.978Z,46.2610
2022-10-14T01:46:56.051Z,46.2680
2022-10-14T01:47:07.115Z,46.2550
2022-10-14T01:47:18.167Z,46.2550
2022-10-14T01:47:29.229Z,46.2610
2022-10-14T01:47:40.304Z,46.2730
2022-10-14T01:47:51.375Z,46.2580
2022-10-14T01:48:02.428Z,46.2630
2022-10-14T01:48:13.487Z,46.2710
2022-10-14T01:48:24.554Z,46.2550
2022-10-14T01:48:35.617Z,46.2500
2022-10-14T01:48:46.681Z,46.2500
2022-10-14T01:48:57.745Z,46.2380
2022-10-14T01:49:08.797Z,46.2260
2022-10-14T01:49:19.837Z,46.2180
2022-10-14T01:49:30.904Z,46.2260
2022-10-14T01:49:41.967Z,46.2500
2022-10-14T01:49:53.007Z,46.2730
2022-10-14T01:50:04.047Z,46.2430
2022-10-14T01:50:15.090Z,46.2500
2022-10-14T01:50:26.167Z,46.2500
2022-10-14T01:50:37.318Z,46.2500
2022-10-14T01:50:48.377Z,46.2180
2022-10-14T01:50:59.440Z,46.2060
2022-10-14T01:51:10.499Z,46.1880
2022-10-14T01:51:21.569Z,46.2060
2022-10-14T01:51:32.638Z,46.1940
2022-10-14T01:51:43.688Z,46.2000
2022-10-14T01:51:54.788Z,46.1940
2022-10-14T01:52:05.857Z,46.2060
2022-10-14T01:52:16.918Z,46.1940
2022-10-14T01:52:28.007Z,46.2120
2022-10-14T01:52:39.058Z,46.1820
2022-10-14T01:52:50.117Z,46.1940
2022-10-14T01:53:01.169Z,46.2000
2022-10-14T01:53:12.238Z,46.1920
2022-10-14T01:53:23.511Z,46.1780
2022-10-14T01:53:34.588Z,46.2040
2022-10-14T01:53:45.649Z,46.1920
2022-10-14T01:53:56.708Z,46.1970
2022-10-14T01:54:07.762Z,46.1970
2022-10-14T01:54:18.842Z,46.1780
2022-10-14T01:54:29.878Z,46.1720
2022-10-14T01:54:40.938Z,46.1660
2022-10-14T01:54:51.998Z,46.1600
2022-10-14T01:55:03.063Z,46.1660
2022-10-14T01:55:14.099Z,46.1720
2022-10-14T01:55:25.180Z,46.1540
2022-10-14T01:55:36.239Z,46.1420
2022-10-14T01:55:47.308Z,46.1480
2022-10-14T01:55:58.371Z,46.1600
2022-10-14T01:56:09.408Z,46.1640
2022-10-14T01:56:20.478Z,46.1640
2022-10-14T01:56:31.554Z,46.1760
2022-10-14T01:56:42.615Z,46.1700
2022-10-14T01:56:53.668Z,46.1820
2022-10-14T01:57:04.769Z,46.1700
2022-10-14T01:57:15.828Z,46.1640
2022-10-14T01:57:26.911Z,46.1720
2022-10-14T01:57:37.937Z,46.1540
2022-10-14T01:57:48.998Z,46.1540
2022-10-14T01:58:00.068Z,46.1420
2022-10-14T01:58:11.127Z,46.1360
2022-10-14T01:58:22.197Z,46.1540
2022-10-14T01:58:33.248Z,46.1420
2022-10-14T01:58:44.308Z,46.1300
2022-10-14T01:58:55.386Z,46.1360
2022-10-14T01:59:06.458Z,46.1360
2022-10-14T01:59:17.498Z,46.1480
2022-10-14T01:59:28.575Z,46.1540
2022-10-14T01:59:39.608Z,46.1780
2022-10-14T01:59:50.667Z,46.1580
2022-10-14T02:00:01.728Z,46.1520
2022-10-14T02:00:12.797Z,46.1700
2022-10-14T02:00:23.888Z,46.1700
2022-10-14T02:00:34.936Z,46.1820
2022-10-14T02:00:45.989Z,46.1640
2022-10-14T02:00:57.057Z,46.1880
2022-10-14T02:01:08.127Z,46.1860
2022-10-14T02:01:19.251Z,46.1720
2022-10-14T02:01:30.324Z,46.1780
2022-10-14T02:01:41.464Z,46.1860
2022-10-14T02:01:52.573Z,46.1880
2022-10-14T02:02:03.665Z,46.2000
2022-10-14T02:02:14.774Z,46.2120
2022-10-14T02:02:25.827Z,46.2180
2022-10-14T02:02:36.888Z,46.2380
2022-10-14T02:02:47.947Z,46.2180
2022-10-14T02:02:59.200Z,46.1970
2022-10-14T02:03:10.247Z,46.1780
2022-10-14T02:03:21.327Z,46.1720
2022-10-14T02:03:32.387Z,46.1720
2022-10-14T02:03:43.465Z,46.1480
2022-10-14T02:03:54.527Z,46.1420
2022-10-14T02:04:05.601Z,46.1540
2022-10-14T02:04:16.670Z,46.1720
2022-10-14T02:04:27.729Z,46.1880
2022-10-14T02:04:38.773Z,46.1640
2022-10-14T02:04:49.837Z,46.1580
2022-10-14T02:05:00.900Z,46.1260
2022-10-14T02:05:11.980Z,46.1260
2022-10-14T02:05:23.058Z,46.1200
2022-10-14T02:05:34.136Z,46.1200
2022-10-14T02:05:45.212Z,46.1260
2022-10-14T02:05:56.269Z,46.1140
2022-10-14T02:06:07.338Z,46.1140
2022-10-14T02:06:18.398Z,46.1240
2022-10-14T02:06:29.468Z,46.1300
2022-10-14T02:06:40.537Z,46.1360
2022-10-14T02:06:51.603Z,46.1540
2022-10-14T02:07:02.662Z,46.1480
2022-10-14T02:07:13.717Z,46.1720
2022-10-14T02:07:24.799Z,46.1540
2022-10-14T02:07:35.858Z,46.1720
2022-10-14T02:07:46.908Z,46.1660
2022-10-14T02:07:58.070Z,46.1600
2022-10-14T02:08:09.120Z,46.1540
2022-10-14T02:08:20.178Z,46.1480
2022-10-14T02:08:31.248Z,46.1480
2022-10-14T02:08:42.300Z,46.1360
2022-10-14T02:08:53.338Z,46.1260
2022-10-14T02:09:04.399Z,46.1260
2022-10-14T02:09:15.494Z,46.1260
2022-10-14T02:09:26.558Z,46.1260
2022-10-14T02:09:37.577Z,46.1260
2022-10-14T02:09:48.646Z,46.1260
2022-10-14T02:09:59.710Z,46.1460
2022-10-14T02:10:10.783Z,46.1460
2022-10-14T02:10:21.838Z,46.1520
2022-10-14T02:10:32.907Z,46.1460
2022-10-14T02:10:43.968Z,46.1520
2022-10-14T02:10:59.536Z,46.1400
2022-10-14T02:11:11.989Z,46.3590
2022-10-14T02:11:23.057Z,46.2630
2022-10-14T02:11:34.128Z,46.2160
2022-10-14T02:11:45.178Z,46.1940
2022-10-14T02:11:56.251Z,46.1520
2022-10-14T02:12:07.306Z,46.1460
2022-10-14T02:12:18.566Z,46.1520
2022-10-14T02:12:29.888Z,46.1700
2022-10-14T02:12:40.951Z,46.1400
2022-10-14T02:12:52.007Z,46.1080
2022-10-14T02:13:03.080Z,46.1020
2022-10-14T02:13:14.147Z,46.1120
2022-10-14T02:13:25.197Z,46.1180
2022-10-14T02:13:36.261Z,46.1060
2022-10-14T02:13:47.328Z,46.1000
2022-10-14T02:13:58.391Z,46.1020
2022-10-14T02:14:09.447Z,46.1020
2022-10-14T02:14:20.508Z,46.1020
2022-10-14T02:14:31.548Z,46.1020